Terminal Aerodrome Forecast
Issued by NWS

Current Version | Previous Version | Text Only | Print | Product List | Glossary Off
Versions: 1 2 3 4 5 6 7 8 9 10 11 12 13 14 15 16 17 18

722
FTUS41 KPBZ 201008 AAA
TAFMGW
TAF AMD
KMGW 201008Z 2010/2106 VRB03KT P6SM OVC030
     FM201300 20003KT P6SM BKN100
     FM202300 21005KT P6SM -RA OVC050
     FM210200 18003KT 3SM -RA BR OVC025
     FM210500 20003KT 3SM -RA BR OVC015=

USA.gov is the U.S. government's official web portal to all federal, state and local government web resources and services.